E.r.pusan — D5OQ8 — position and weather

sailwx.info

Track history (hours):
 
Tides and Currents Weather Stations Pressure Air Temp Water Temp Dewpoint Dewpoint Depression Visibility Wind Speed Wind Dir Waves Ship Positions

E.r.pusan

Last reported at 2017-Dec-16 04:41 UTC. Time now 2017-Dec-17 04:29 UTC.
Position N 36°01' W 005°08'.

Length 277 m; draft 13.1 m.

Type: Ship (hazmat cat A). MMSI: 636018212.

Date/timePositionNaut miles runAvg speedWind from/ knotsBaromVisibWave heightAir tempDewpointWater temp
2017-Dec-16 04:41N 36°01' W 005°08'317.7
2017-Dec-16 04:30N 36°00' W 005°12'918.2
2017-Dec-16 04:00N 35°58' W 005°22'24714.5
2017-Dec-15 10:59N 37°58' W 009°52'918.3
2017-Dec-15 10:30N 38°06' W 009°55'918.3
2017-Dec-15 10:00N 38°15' W 009°58'918.1
2017-Dec-15 09:30N 38°24' W 010°00'918.2
2017-Dec-15 09:00N 38°33' W 010°03'918.3
2017-Dec-15 08:30N 38°42' W 010°05'918.2
2017-Dec-15 08:00N 38°51' W 010°05'917.9
2017-Dec-15 07:30N 38°60' W 010°05'918.3
2017-Dec-15 07:00N 39°09' W 010°06'918.1
2017-Dec-15 06:30N 39°18' W 010°06'1118.3
2017-Dec-15 05:56N 39°29' W 010°06'36917.6
2017-Dec-14 09:00N 45°30' W 008°24'22718.1 270 / 301014.110.8 13.0
2017-Dec-13 20:26N 48°51' W 005°46'10715.5
2017-Dec-13 13:32N 49°46' W 003°26'017.1
2017-Dec-13 13:30N 49°46' W 003°25'917.3
2017-Dec-13 13:00N 49°50' W 003°13'917.6
2017-Dec-13 12:30N 49°54' W 003°02'917.9
2017-Dec-13 12:00N 49°59' W 002°49'918.5
2017-Dec-13 11:30N 50°01' W 002°35'918.4
2017-Dec-13 11:00N 50°00' W 002°21'1319.2
2017-Dec-13 10:18N 49°58' W 002°00'619.7
2017-Dec-13 10:00N 49°56' W 001°51'1219.9
2017-Dec-13 09:24N 49°53' W 001°33'2619.6
2017-Dec-13 08:05N 49°44' W 000°56'218.9
2017-Dec-13 07:59N 49°43' W 000°53'918.4
2017-Dec-13 07:30N 49°40' W 000°41'917.9
2017-Dec-13 07:00N 49°37' W 000°28'917.6
2017-Dec-13 06:30N 49°34' W 000°15'815.4
2017-Dec-13 06:01N 49°31' W 000°04'713.8
2017-Dec-13 05:31N 49°28' E 000°06'2 3.0
2017-Dec-13 04:58N 49°28' E 000°08'0 0.0
2017-Dec-13 04:28N 49°28' E 000°08'0 0.0
2017-Dec-13 03:58N 49°28' E 000°08'0 0.0
2017-Dec-13 03:28N 49°28' E 000°08'0 0.0
2017-Dec-13 02:58N 49°28' E 000°08'0 0.1
2017-Dec-13 02:28N 49°28' E 000°08'0 0.1
2017-Dec-13 01:58N 49°28' E 000°08'0 0.0
2017-Dec-13 01:28N 49°28' E 000°08'0 0.0
2017-Dec-13 00:58N 49°28' E 000°08'0 0.0
2017-Dec-13 00:28N 49°28' E 000°08'0 0.0
2017-Dec-12 23:58N 49°28' E 000°08'0 0.0
2017-Dec-12 23:28N 49°28' E 000°08'0 0.0
2017-Dec-12 22:58N 49°28' E 000°08'0 0.0
2017-Dec-12 22:28N 49°28' E 000°08'0 0.0
2017-Dec-12 21:58N 49°28' E 000°08'0 0.0
2017-Dec-12 21:28N 49°28' E 000°08'0 0.0
2017-Dec-12 20:58N 49°28' E 000°08'0 0.0
2017-Dec-12 20:28N 49°28' E 000°08'0 0.0
2017-Dec-12 19:58N 49°28' E 000°08'0 0.0
2017-Dec-12 19:28N 49°28' E 000°08'0 0.0
2017-Dec-12 18:58N 49°28' E 000°08'0 0.0
2017-Dec-12 18:28N 49°28' E 000°08'0 0.0
2017-Dec-12 17:55N 49°28' E 000°08'0 0.0
2017-Dec-12 17:28N 49°28' E 000°08'0 0.0
2017-Dec-12 16:58N 49°28' E 000°08'0 0.0
2017-Dec-12 16:28N 49°28' E 000°08'0 0.0
2017-Dec-12 15:58N 49°28' E 000°08'0 0.0
2017-Dec-12 15:28N 49°28' E 000°08'0 0.0
2017-Dec-12 14:58N 49°28' E 000°08'0 0.0
2017-Dec-12 14:28N 49°28' E 000°08'0 0.0
2017-Dec-12 13:58N 49°28' E 000°08'0 0.0
2017-Dec-12 13:28N 49°28' E 000°08'0 0.3
2017-Dec-12 13:00N 49°28' E 000°08'4 8.5
2017-Dec-12 12:30N 49°30' E 000°02'611.2
2017-Dec-12 12:00N 49°32' W 000°06'4 8.9
2017-Dec-12 11:30N 49°36' W 000°09'2 4.3
2017-Dec-12 11:00N 49°38' W 000°09'1 1.8
2017-Dec-12 10:30N 49°39' W 000°08'3 5.4
2017-Dec-12 10:00N 49°41' W 000°07'4 7.5
2017-Dec-12 09:30N 49°45' W 000°08'4 7.3
2017-Dec-12 09:00N 49°49' W 000°08'4 7.4
2017-Dec-12 08:30N 49°53' W 000°08'611.7
2017-Dec-12 08:00N 49°58' W 000°07'714.6
2017-Dec-12 07:31N 50°06' W 000°07'714.7
2017-Dec-12 07:01N 50°13' W 000°06'1214.8
2017-Dec-12 06:11N 50°25' W 000°03'213.8
2017-Dec-12 06:01N 50°27' W 000°03'815.2
2017-Dec-12 05:31N 50°29' E 000°09'815.4
2017-Dec-12 05:00N 50°31' E 000°21'815.0
2017-Dec-12 04:30N 50°33' E 000°32'714.3
2017-Dec-12 04:01N 50°37' E 000°42'714.6
2017-Dec-12 03:30N 50°41' E 000°51'714.7
2017-Dec-12 03:01N 50°45' E 001°01'714.7
2017-Dec-12 02:31N 50°50' E 001°10'714.5
2017-Dec-12 02:00N 50°55' E 001°19'714.7
2017-Dec-12 01:30N 51°00' E 001°26'714.4
2017-Dec-12 01:01N 51°05' E 001°35'714.9
2017-Dec-12 00:31N 51°10' E 001°43'715.0
2017-Dec-12 00:01N 51°16' E 001°50'714.8
2017-Dec-11 23:31N 51°22' E 001°57'611.1
2017-Dec-11 23:01N 51°23' E 002°05'713.8
2017-Dec-11 22:31N 51°21' E 002°16'713.9
2017-Dec-11 22:00N 51°22' E 002°27'914.4
2017-Dec-11 21:23N 51°23' E 002°41'512.1
2017-Dec-11 20:59N 51°25' E 002°48'715.3
2017-Dec-11 20:30N 51°25' E 002°60'815.4
2017-Dec-11 20:00N 51°24' E 003°12'714.6
2017-Dec-11 19:30N 51°25' E 003°24'713.5
2017-Dec-11 19:00N 51°26' E 003°35'4 7.3
2017-Dec-11 18:30N 51°26' E 003°41'611.4
2017-Dec-11 18:00N 51°22' E 003°46'611.3
2017-Dec-11 17:30N 51°22' E 003°55'510.9
2017-Dec-11 17:01N 51°26' E 004°01'510.4
2017-Dec-11 16:31N 51°22' E 004°07'5 9.1
2017-Dec-11 16:00N 51°21' E 004°15'3 7.0
2017-Dec-11 15:30N 51°18' E 004°16'1 1.9
2017-Dec-11 14:58N 51°17' E 004°15'0 0.0
2017-Dec-11 14:28N 51°17' E 004°15'0 0.0
2017-Dec-11 13:58N 51°17' E 004°15'0 0.0
2017-Dec-11 13:28N 51°17' E 004°15'0 0.0
2017-Dec-11 12:58N 51°17' E 004°15'0 0.0
2017-Dec-11 12:28N 51°17' E 004°15'0 0.0
2017-Dec-11 11:58N 51°17' E 004°15'0 0.0
2017-Dec-11 11:28N 51°17' E 004°15'0 0.0
2017-Dec-11 10:55N 51°17' E 004°15'0 0.0
2017-Dec-11 10:28N 51°17' E 004°15'0 0.0
2017-Dec-11 09:58N 51°17' E 004°15'0 0.0
2017-Dec-11 09:28N 51°17' E 004°15'0 0.0
2017-Dec-11 08:58N 51°17' E 004°15'0 0.0
2017-Dec-11 08:25N 51°17' E 004°15'0 0.0
2017-Dec-11 07:58N 51°17' E 004°15'0 0.0
2017-Dec-11 07:28N 51°17' E 004°15'0 0.0
2017-Dec-11 06:55N 51°17' E 004°15'0 0.0
2017-Dec-11 06:28N 51°17' E 004°15'0 0.0
2017-Dec-11 05:58N 51°17' E 004°15'0 0.0
2017-Dec-11 05:22N 51°17' E 004°15'0 0.0
2017-Dec-11 04:58N 51°17' E 004°15'0 0.0
2017-Dec-11 04:22N 51°17' E 004°15'0 0.0
2017-Dec-11 03:58N 51°17' E 004°15'0 0.0
2017-Dec-11 03:25N 51°17' E 004°15'0 0.0
2017-Dec-11 02:58N 51°17' E 004°15'0 0.0
2017-Dec-11 02:25N 51°17' E 004°15'0 0.0
2017-Dec-11 01:58N 51°17' E 004°15'0 0.0
2017-Dec-11 01:28N 51°17' E 004°15'0 0.0
2017-Dec-11 00:58N 51°17' E 004°15'0 0.0
2017-Dec-11 00:28N 51°17' E 004°15'0 0.0
2017-Dec-10 23:58N 51°17' E 004°15'0 0.0
2017-Dec-10 23:25N 51°17' E 004°15'0 0.0
2017-Dec-10 22:58N 51°17' E 004°15'0 0.0
2017-Dec-10 22:28N 51°17' E 004°15'0 0.0
2017-Dec-10 21:52N 51°17' E 004°15'0 0.0
2017-Dec-10 21:28N 51°17' E 004°15'0 0.0
2017-Dec-10 20:58N 51°17' E 004°15'0 0.0
2017-Dec-10 20:25N 51°17' E 004°15'0 0.0
2017-Dec-10 19:55N 51°17' E 004°15'0 0.0
2017-Dec-10 19:25N 51°17' E 004°15'0 0.0
2017-Dec-10 18:58N 51°17' E 004°15'0 0.0
2017-Dec-10 18:28N 51°17' E 004°15'0 0.0
2017-Dec-10 17:55N 51°17' E 004°15'0 0.0
2017-Dec-10 17:28N 51°17' E 004°15'0 0.0
2017-Dec-10 16:58N 51°17' E 004°15'0 0.0
2017-Dec-10 16:28N 51°17' E 004°15'0 0.0
2017-Dec-10 15:55N 51°17' E 004°15'0 0.0
2017-Dec-10 15:28N 51°17' E 004°15'0 0.0
2017-Dec-10 14:58N 51°17' E 004°15'0 0.0
2017-Dec-10 14:28N 51°17' E 004°15'0 0.0
2017-Dec-10 13:55N 51°17' E 004°15'0 0.0
2017-Dec-10 13:25N 51°17' E 004°15'0 0.0
2017-Dec-10 12:55N 51°17' E 004°15'0 0.1
2017-Dec-10 12:28N 51°17' E 004°15'0 0.0
2017-Dec-10 11:58N 51°17' E 004°15'0 0.0
2017-Dec-10 11:25N 51°17' E 004°15'0 0.0
2017-Dec-10 10:58N 51°17' E 004°15'0 0.0
2017-Dec-10 10:28N 51°17' E 004°15'0 0.0
2017-Dec-10 09:58N 51°17' E 004°15'0 0.0
2017-Dec-10 09:28N 51°17' E 004°15'0 0.0
2017-Dec-10 08:58N 51°17' E 004°15'0 0.0
2017-Dec-10 08:28N 51°17' E 004°15'0 0.0
2017-Dec-10 07:58N 51°17' E 004°15'0 0.0
2017-Dec-10 07:28N 51°17' E 004°15'0 0.0
2017-Dec-10 06:58N 51°17' E 004°15'0 0.0
2017-Dec-10 06:28N 51°17' E 004°15'0 0.0
2017-Dec-10 05:58N 51°17' E 004°15'0 0.0
2017-Dec-10 05:28N 51°17' E 004°15'0 0.0
2017-Dec-10 05:00N 51°17' E 004°15'1 1.4
2017-Dec-10 04:30N 51°18' E 004°16'1 2.1
2017-Dec-10 04:00N 51°19' E 004°16'4 7.5
2017-Dec-10 03:31N 51°22' E 004°13'510.3
2017-Dec-10 03:01N 51°22' E 004°05'510.0
2017-Dec-10 02:31N 51°26' E 004°00'611.2
2017-Dec-10 02:01N 51°22' E 003°55'4 8.7
2017-Dec-10 01:31N 51°21' E 003°48'5 9.4
2017-Dec-10 01:00N 51°25' E 003°43'5 9.1
2017-Dec-10 00:30N 51°26' E 003°35'4 8.9
2017-Dec-10 00:00N 51°25' E 003°28'611.2
2017-Dec-09 23:31N 51°24' E 003°20'510.3
2017-Dec-09 23:01N 51°24' E 003°11'714.1
2017-Dec-09 22:31N 51°25' E 003°00'714.7
2017-Dec-09 22:00N 51°32' E 003°05'714.6
2017-Dec-09 21:30N 51°38' E 003°11'1013.5
2017-Dec-09 20:48N 51°47' E 003°16'412.9
2017-Dec-09 20:30N 51°51' E 003°17'35 9.3
2017-Dec-09 16:45N 52°25' E 003°27'11 9.9
2017-Dec-09 15:36N 52°36' E 003°31'1 9.6
2017-Dec-09 15:29N 52°37' E 003°32'5 9.9
2017-Dec-09 14:59N 52°41' E 003°37'510.1
2017-Dec-09 14:29N 52°45' E 003°42'5 9.9
2017-Dec-09 13:58N 52°49' E 003°48'5 9.9
2017-Dec-09 13:30N 52°52' E 003°53'5 9.8
2017-Dec-09 13:00N 52°56' E 003°58'510.0
2017-Dec-09 12:30N 52°59' E 004°05'5 9.8
2017-Dec-09 12:00N 53°02' E 004°11'510.1
2017-Dec-09 11:30N 53°06' E 004°17'5 9.9
2017-Dec-09 11:00N 53°09' E 004°23'510.7
2017-Dec-09 10:30N 53°14' E 004°27'611.2
2017-Dec-09 10:00N 53°19' E 004°30'611.0
2017-Dec-09 09:29N 53°24' E 004°34'510.3
2017-Dec-09 09:00N 53°28' E 004°39'510.4
2017-Dec-09 08:30N 53°31' E 004°47'510.4
2017-Dec-09 08:00N 53°33' E 004°54'510.7
2017-Dec-09 07:30N 53°35' E 005°03'611.4
2017-Dec-09 07:00N 53°37' E 005°12'611.6
2017-Dec-09 06:30N 53°39' E 005°21'711.9
2017-Dec-09 05:57N 53°41' E 005°31'71 9.5
2017-Dec-08 22:30N 53°60' E 007°27'4 7.3
2017-Dec-08 22:00N 54°01' E 007°33'4 8.3
2017-Dec-08 21:30N 54°02' E 007°40'5 9.2
2017-Dec-08 21:00N 54°02' E 007°48'5 9.9
2017-Dec-08 20:30N 54°00' E 007°56'610.4
2017-Dec-08 19:57N 54°01' E 008°05'410.0
2017-Dec-08 19:30N 54°01' E 008°13'611.4
2017-Dec-08 19:00N 53°59' E 008°23'917.5
2017-Dec-08 18:31N 53°57' E 008°37'815.9
2017-Dec-08 18:01N 53°51' E 008°45'815.1
2017-Dec-08 17:30N 53°51' E 008°58'713.9
2017-Dec-08 17:00N 53°53' E 009°10'5 9.2
2017-Dec-08 16:31N 53°52' E 009°17'612.4
2017-Dec-08 16:01N 53°47' E 009°23'713.0
2017-Dec-08 15:31N 53°42' E 009°30'5 9.0
2017-Dec-08 15:01N 53°37' E 009°33'510.3
2017-Dec-08 14:31N 53°34' E 009°39'5 9.8
2017-Dec-08 14:01N 53°33' E 009°48'4 8.2
2017-Dec-08 13:31N 53°32' E 009°54'0 0.5
2017-Dec-08 12:59N 53°32' E 009°54'0 0.0
2017-Dec-08 12:29N 53°32' E 009°54'0 0.1
2017-Dec-08 11:59N 53°32' E 009°54'0 0.0
2017-Dec-08 11:29N 53°32' E 009°54'0 0.0
2017-Dec-08 10:59N 53°32' E 009°54'0 0.0
2017-Dec-08 10:29N 53°32' E 009°54'0 0.0
2017-Dec-08 09:56N 53°32' E 009°54'0 0.0
2017-Dec-08 09:29N 53°32' E 009°54'0 0.0
2017-Dec-08 08:59N 53°32' E 009°54'0 0.0
2017-Dec-08 08:29N 53°32' E 009°54'0 0.0
2017-Dec-08 07:59N 53°32' E 009°54'0 0.0
2017-Dec-08 07:29N 53°32' E 009°54'0 0.0
2017-Dec-08 06:59N 53°32' E 009°54'0 0.0
2017-Dec-08 06:29N 53°32' E 009°54'0 0.0
2017-Dec-08 05:59N 53°32' E 009°54'0 0.0
2017-Dec-08 05:29N 53°32' E 009°54'0 0.0
2017-Dec-08 04:59N 53°32' E 009°54'0 0.0
2017-Dec-08 04:29N 53°32' E 009°54'0 0.0
2017-Dec-08 03:56N 53°32' E 009°54'0 0.0
2017-Dec-08 03:29N 53°32' E 009°54'0 0.0
2017-Dec-08 02:59N 53°32' E 009°54'0 0.0
2017-Dec-08 02:29N 53°32' E 009°54'0 0.0
2017-Dec-08 01:59N 53°32' E 009°54'0 0.0
2017-Dec-08 01:29N 53°32' E 009°54'0 0.0
2017-Dec-08 00:59N 53°32' E 009°54'0 0.1
2017-Dec-08 00:29N 53°32' E 009°54'0 0.1
2017-Dec-07 23:59N 53°32' E 009°54'0 0.0
2017-Dec-07 23:29N 53°32' E 009°54'0 0.0
2017-Dec-07 22:59N 53°32' E 009°54'0 0.0
2017-Dec-07 22:29N 53°32' E 009°54'0 0.0
2017-Dec-07 21:59N 53°32' E 009°54'0 0.1
2017-Dec-07 21:29N 53°32' E 009°54'0 0.1
2017-Dec-07 20:59N 53°32' E 009°54'0 0.0
2017-Dec-07 20:29N 53°32' E 009°54'0 0.0
2017-Dec-07 19:59N 53°32' E 009°54'0 0.0
2017-Dec-07 19:29N 53°32' E 009°54'0 0.0
2017-Dec-07 18:59N 53°32' E 009°54'0 0.0
2017-Dec-07 18:26N 53°32' E 009°54'0 0.0
2017-Dec-07 17:59N 53°32' E 009°54'0 0.0
2017-Dec-07 17:29N 53°32' E 009°54'0 0.0
2017-Dec-07 16:59N 53°32' E 009°54'0 0.0
2017-Dec-07 16:29N 53°32' E 009°54'0 0.0
2017-Dec-07 15:59N 53°32' E 009°54'0 0.0
2017-Dec-07 15:26N 53°32' E 009°54'0 0.0
2017-Dec-07 14:59N 53°32' E 009°54'0 0.0
2017-Dec-07 14:29N 53°32' E 009°54'0 0.0
2017-Dec-07 13:59N 53°32' E 009°54'0 0.5
2017-Dec-07 13:31N 53°32' E 009°54'4 8.2
2017-Dec-07 13:00N 53°33' E 009°47'510.9
2017-Dec-07 12:31N 53°34' E 009°38'611.4
2017-Dec-07 12:01N 53°38' E 009°31'5 9.7
2017-Dec-07 11:30N 53°43' E 009°28'510.8
2017-Dec-07 11:01N 53°47' E 009°23'713.2
2017-Dec-07 10:30N 53°52' E 009°16'5 9.7
2017-Dec-07 10:01N 53°53' E 009°08'510.6
2017-Dec-07 09:30N 53°51' E 008°59'713.2
2017-Dec-07 09:00N 53°50' E 008°48'5 9.7
2017-Dec-07 08:30N 53°54' E 008°42'611.7
2017-Dec-07 08:00N 53°58' E 008°35'713.9
2017-Dec-07 07:30N 53°59' E 008°23'713.3
2017-Dec-07 07:00N 53°60' E 008°12'713.6
2017-Dec-07 06:30N 53°58' E 008°01'8814.7
2017-Dec-07 00:31N 53°35' E 005°37'014.6
2017-Dec-07 00:30N 53°35' E 005°36'714.7
2017-Dec-07 00:01N 53°33' E 005°25'815.0
2017-Dec-06 23:30N 53°31' E 005°12'815.1
2017-Dec-06 23:00N 53°28' E 005°00'815.1
2017-Dec-06 22:30N 53°26' E 004°48'714.3
2017-Dec-06 22:01N 53°21' E 004°40'714.9
2017-Dec-06 21:30N 53°15' E 004°34'815.0
2017-Dec-06 21:00N 53°08' E 004°28'  
Track history (hours):
 
Tides and Currents Weather Stations Pressure Air Temp Water Temp Dewpoint Dewpoint Depression Visibility Wind Speed Wind Dir Waves Ship Positions

E.r.pusan

Last reported at 2017-Dec-16 04:41 UTC. Time now 2017-Dec-17 04:29 UTC.
Position N 36°01' W 005°08'.

Length 277 m; draft 13.1 m.

Type: Ship (hazmat cat A). MMSI: 636018212.

Date/timePositionNaut miles runAvg speedWind from/ knotsBaromVisibWave heightAir tempDewpointWater temp
2017-Dec-16 04:41N 36°01' W 005°08'317.7
2017-Dec-16 04:30N 36°00' W 005°12'918.2
2017-Dec-16 04:00N 35°58' W 005°22'24714.5
2017-Dec-15 10:59N 37°58' W 009°52'918.3
2017-Dec-15 10:30N 38°06' W 009°55'918.3
2017-Dec-15 10:00N 38°15' W 009°58'918.1
2017-Dec-15 09:30N 38°24' W 010°00'918.2
2017-Dec-15 09:00N 38°33' W 010°03'918.3
2017-Dec-15 08:30N 38°42' W 010°05'918.2
2017-Dec-15 08:00N 38°51' W 010°05'917.9
2017-Dec-15 07:30N 38°60' W 010°05'918.3
2017-Dec-15 07:00N 39°09' W 010°06'918.1
2017-Dec-15 06:30N 39°18' W 010°06'1118.3
2017-Dec-15 05:56N 39°29' W 010°06'36917.6
2017-Dec-14 09:00N 45°30' W 008°24'22718.1 270 / 301014.110.8 13.0
2017-Dec-13 20:26N 48°51' W 005°46'10715.5
2017-Dec-13 13:32N 49°46' W 003°26'017.1
2017-Dec-13 13:30N 49°46' W 003°25'917.3
2017-Dec-13 13:00N 49°50' W 003°13'917.6
2017-Dec-13 12:30N 49°54' W 003°02'917.9
2017-Dec-13 12:00N 49°59' W 002°49'918.5
2017-Dec-13 11:30N 50°01' W 002°35'918.4
2017-Dec-13 11:00N 50°00' W 002°21'1319.2
2017-Dec-13 10:18N 49°58' W 002°00'619.7
2017-Dec-13 10:00N 49°56' W 001°51'1219.9
2017-Dec-13 09:24N 49°53' W 001°33'2619.6
2017-Dec-13 08:05N 49°44' W 000°56'218.9
2017-Dec-13 07:59N 49°43' W 000°53'918.4
2017-Dec-13 07:30N 49°40' W 000°41'917.9
2017-Dec-13 07:00N 49°37' W 000°28'917.6
2017-Dec-13 06:30N 49°34' W 000°15'815.4
2017-Dec-13 06:01N 49°31' W 000°04'713.8
2017-Dec-13 05:31N 49°28' E 000°06'2 3.0
2017-Dec-13 04:58N 49°28' E 000°08'0 0.0
2017-Dec-13 04:28N 49°28' E 000°08'0 0.0
2017-Dec-13 03:58N 49°28' E 000°08'0 0.0
2017-Dec-13 03:28N 49°28' E 000°08'0 0.0
2017-Dec-13 02:58N 49°28' E 000°08'0 0.1
2017-Dec-13 02:28N 49°28' E 000°08'0 0.1
2017-Dec-13 01:58N 49°28' E 000°08'0 0.0
2017-Dec-13 01:28N 49°28' E 000°08'0 0.0
2017-Dec-13 00:58N 49°28' E 000°08'0 0.0
2017-Dec-13 00:28N 49°28' E 000°08'0 0.0
2017-Dec-12 23:58N 49°28' E 000°08'0 0.0
2017-Dec-12 23:28N 49°28' E 000°08'0 0.0
2017-Dec-12 22:58N 49°28' E 000°08'0 0.0
2017-Dec-12 22:28N 49°28' E 000°08'0 0.0
2017-Dec-12 21:58N 49°28' E 000°08'0 0.0
2017-Dec-12 21:28N 49°28' E 000°08'0 0.0
2017-Dec-12 20:58N 49°28' E 000°08'0 0.0
2017-Dec-12 20:28N 49°28' E 000°08'0 0.0
2017-Dec-12 19:58N 49°28' E 000°08'0 0.0
2017-Dec-12 19:28N 49°28' E 000°08'0 0.0
2017-Dec-12 18:58N 49°28' E 000°08'0 0.0
2017-Dec-12 18:28N 49°28' E 000°08'0 0.0
2017-Dec-12 17:55N 49°28' E 000°08'0 0.0
2017-Dec-12 17:28N 49°28' E 000°08'0 0.0
2017-Dec-12 16:58N 49°28' E 000°08'0 0.0
2017-Dec-12 16:28N 49°28' E 000°08'0 0.0
2017-Dec-12 15:58N 49°28' E 000°08'0 0.0
2017-Dec-12 15:28N 49°28' E 000°08'0 0.0
2017-Dec-12 14:58N 49°28' E 000°08'0 0.0
2017-Dec-12 14:28N 49°28' E 000°08'0 0.0
2017-Dec-12 13:58N 49°28' E 000°08'0 0.0
2017-Dec-12 13:28N 49°28' E 000°08'0 0.3
2017-Dec-12 13:00N 49°28' E 000°08'4 8.5
2017-Dec-12 12:30N 49°30' E 000°02'611.2
2017-Dec-12 12:00N 49°32' W 000°06'4 8.9
2017-Dec-12 11:30N 49°36' W 000°09'2 4.3
2017-Dec-12 11:00N 49°38' W 000°09'1 1.8
2017-Dec-12 10:30N 49°39' W 000°08'3 5.4
2017-Dec-12 10:00N 49°41' W 000°07'4 7.5
2017-Dec-12 09:30N 49°45' W 000°08'4 7.3
2017-Dec-12 09:00N 49°49' W 000°08'4 7.4
2017-Dec-12 08:30N 49°53' W 000°08'611.7
2017-Dec-12 08:00N 49°58' W 000°07'714.6
2017-Dec-12 07:31N 50°06' W 000°07'714.7
2017-Dec-12 07:01N 50°13' W 000°06'1214.8
2017-Dec-12 06:11N 50°25' W 000°03'213.8
2017-Dec-12 06:01N 50°27' W 000°03'815.2
2017-Dec-12 05:31N 50°29' E 000°09'815.4
2017-Dec-12 05:00N 50°31' E 000°21'815.0
2017-Dec-12 04:30N 50°33' E 000°32'714.3
2017-Dec-12 04:01N 50°37' E 000°42'714.6
2017-Dec-12 03:30N 50°41' E 000°51'714.7
2017-Dec-12 03:01N 50°45' E 001°01'714.7
2017-Dec-12 02:31N 50°50' E 001°10'714.5
2017-Dec-12 02:00N 50°55' E 001°19'714.7
2017-Dec-12 01:30N 51°00' E 001°26'714.4
2017-Dec-12 01:01N 51°05' E 001°35'714.9
2017-Dec-12 00:31N 51°10' E 001°43'715.0
2017-Dec-12 00:01N 51°16' E 001°50'714.8
2017-Dec-11 23:31N 51°22' E 001°57'611.1
2017-Dec-11 23:01N 51°23' E 002°05'713.8
2017-Dec-11 22:31N 51°21' E 002°16'713.9
2017-Dec-11 22:00N 51°22' E 002°27'914.4
2017-Dec-11 21:23N 51°23' E 002°41'512.1
2017-Dec-11 20:59N 51°25' E 002°48'715.3
2017-Dec-11 20:30N 51°25' E 002°60'815.4
2017-Dec-11 20:00N 51°24' E 003°12'714.6
2017-Dec-11 19:30N 51°25' E 003°24'713.5
2017-Dec-11 19:00N 51°26' E 003°35'4 7.3
2017-Dec-11 18:30N 51°26' E 003°41'611.4
2017-Dec-11 18:00N 51°22' E 003°46'611.3
2017-Dec-11 17:30N 51°22' E 003°55'510.9
2017-Dec-11 17:01N 51°26' E 004°01'510.4
2017-Dec-11 16:31N 51°22' E 004°07'5 9.1
2017-Dec-11 16:00N 51°21' E 004°15'3 7.0
2017-Dec-11 15:30N 51°18' E 004°16'1 1.9
2017-Dec-11 14:58N 51°17' E 004°15'0 0.0
2017-Dec-11 14:28N 51°17' E 004°15'0 0.0
2017-Dec-11 13:58N 51°17' E 004°15'0 0.0
2017-Dec-11 13:28N 51°17' E 004°15'0 0.0
2017-Dec-11 12:58N 51°17' E 004°15'0 0.0
2017-Dec-11 12:28N 51°17' E 004°15'0 0.0
2017-Dec-11 11:58N 51°17' E 004°15'0 0.0
2017-Dec-11 11:28N 51°17' E 004°15'0 0.0
2017-Dec-11 10:55N 51°17' E 004°15'0 0.0
2017-Dec-11 10:28N 51°17' E 004°15'0 0.0
2017-Dec-11 09:58N 51°17' E 004°15'0 0.0
2017-Dec-11 09:28N 51°17' E 004°15'0 0.0
2017-Dec-11 08:58N 51°17' E 004°15'0 0.0
2017-Dec-11 08:25N 51°17' E 004°15'0 0.0
2017-Dec-11 07:58N 51°17' E 004°15'0 0.0
2017-Dec-11 07:28N 51°17' E 004°15'0 0.0
2017-Dec-11 06:55N 51°17' E 004°15'0 0.0
2017-Dec-11 06:28N 51°17' E 004°15'0 0.0
2017-Dec-11 05:58N 51°17' E 004°15'0 0.0
2017-Dec-11 05:22N 51°17' E 004°15'0 0.0
2017-Dec-11 04:58N 51°17' E 004°15'0 0.0
2017-Dec-11 04:22N 51°17' E 004°15'0 0.0
2017-Dec-11 03:58N 51°17' E 004°15'0 0.0
2017-Dec-11 03:25N 51°17' E 004°15'0 0.0
2017-Dec-11 02:58N 51°17' E 004°15'0 0.0
2017-Dec-11 02:25N 51°17' E 004°15'0 0.0
2017-Dec-11 01:58N 51°17' E 004°15'0 0.0
2017-Dec-11 01:28N 51°17' E 004°15'0 0.0
2017-Dec-11 00:58N 51°17' E 004°15'0 0.0
2017-Dec-11 00:28N 51°17' E 004°15'0 0.0
2017-Dec-10 23:58N 51°17' E 004°15'0 0.0
2017-Dec-10 23:25N 51°17' E 004°15'0 0.0
2017-Dec-10 22:58N 51°17' E 004°15'0 0.0
2017-Dec-10 22:28N 51°17' E 004°15'0 0.0
2017-Dec-10 21:52N 51°17' E 004°15'0 0.0
2017-Dec-10 21:28N 51°17' E 004°15'0 0.0
2017-Dec-10 20:58N 51°17' E 004°15'0 0.0
2017-Dec-10 20:25N 51°17' E 004°15'0 0.0
2017-Dec-10 19:55N 51°17' E 004°15'0 0.0
2017-Dec-10 19:25N 51°17' E 004°15'0 0.0
2017-Dec-10 18:58N 51°17' E 004°15'0 0.0
2017-Dec-10 18:28N 51°17' E 004°15'0 0.0
2017-Dec-10 17:55N 51°17' E 004°15'0 0.0
2017-Dec-10 17:28N 51°17' E 004°15'0 0.0
2017-Dec-10 16:58N 51°17' E 004°15'0 0.0
2017-Dec-10 16:28N 51°17' E 004°15'0 0.0
2017-Dec-10 15:55N 51°17' E 004°15'0 0.0
2017-Dec-10 15:28N 51°17' E 004°15'0 0.0
2017-Dec-10 14:58N 51°17' E 004°15'0 0.0
2017-Dec-10 14:28N 51°17' E 004°15'0 0.0
2017-Dec-10 13:55N 51°17' E 004°15'0 0.0
2017-Dec-10 13:25N 51°17' E 004°15'0 0.0
2017-Dec-10 12:55N 51°17' E 004°15'0 0.1
2017-Dec-10 12:28N 51°17' E 004°15'0 0.0
2017-Dec-10 11:58N 51°17' E 004°15'0 0.0
2017-Dec-10 11:25N 51°17' E 004°15'0 0.0
2017-Dec-10 10:58N 51°17' E 004°15'0 0.0
2017-Dec-10 10:28N 51°17' E 004°15'0 0.0
2017-Dec-10 09:58N 51°17' E 004°15'0 0.0
2017-Dec-10 09:28N 51°17' E 004°15'0 0.0
2017-Dec-10 08:58N 51°17' E 004°15'0 0.0
2017-Dec-10 08:28N 51°17' E 004°15'0 0.0
2017-Dec-10 07:58N 51°17' E 004°15'0 0.0
2017-Dec-10 07:28N 51°17' E 004°15'0 0.0
2017-Dec-10 06:58N 51°17' E 004°15'0 0.0
2017-Dec-10 06:28N 51°17' E 004°15'0 0.0
2017-Dec-10 05:58N 51°17' E 004°15'0 0.0
2017-Dec-10 05:28N 51°17' E 004°15'0 0.0
2017-Dec-10 05:00N 51°17' E 004°15'1 1.4
2017-Dec-10 04:30N 51°18' E 004°16'1 2.1
2017-Dec-10 04:00N 51°19' E 004°16'4 7.5
2017-Dec-10 03:31N 51°22' E 004°13'510.3
2017-Dec-10 03:01N 51°22' E 004°05'510.0
2017-Dec-10 02:31N 51°26' E 004°00'611.2
2017-Dec-10 02:01N 51°22' E 003°55'4 8.7
2017-Dec-10 01:31N 51°21' E 003°48'5 9.4
2017-Dec-10 01:00N 51°25' E 003°43'5 9.1
2017-Dec-10 00:30N 51°26' E 003°35'4 8.9
2017-Dec-10 00:00N 51°25' E 003°28'611.2
2017-Dec-09 23:31N 51°24' E 003°20'510.3
2017-Dec-09 23:01N 51°24' E 003°11'714.1
2017-Dec-09 22:31N 51°25' E 003°00'714.7
2017-Dec-09 22:00N 51°32' E 003°05'714.6
2017-Dec-09 21:30N 51°38' E 003°11'1013.5
2017-Dec-09 20:48N 51°47' E 003°16'412.9
2017-Dec-09 20:30N 51°51' E 003°17'35 9.3
2017-Dec-09 16:45N 52°25' E 003°27'11 9.9
2017-Dec-09 15:36N 52°36' E 003°31'1 9.6
2017-Dec-09 15:29N 52°37' E 003°32'5 9.9
2017-Dec-09 14:59N 52°41' E 003°37'510.1
2017-Dec-09 14:29N 52°45' E 003°42'5 9.9
2017-Dec-09 13:58N 52°49' E 003°48'5 9.9
2017-Dec-09 13:30N 52°52' E 003°53'5 9.8
2017-Dec-09 13:00N 52°56' E 003°58'510.0
2017-Dec-09 12:30N 52°59' E 004°05'5 9.8
2017-Dec-09 12:00N 53°02' E 004°11'510.1
2017-Dec-09 11:30N 53°06' E 004°17'5 9.9
2017-Dec-09 11:00N 53°09' E 004°23'510.7
2017-Dec-09 10:30N 53°14' E 004°27'611.2
2017-Dec-09 10:00N 53°19' E 004°30'611.0
2017-Dec-09 09:29N 53°24' E 004°34'510.3
2017-Dec-09 09:00N 53°28' E 004°39'510.4
2017-Dec-09 08:30N 53°31' E 004°47'510.4
2017-Dec-09 08:00N 53°33' E 004°54'510.7
2017-Dec-09 07:30N 53°35' E 005°03'611.4
2017-Dec-09 07:00N 53°37' E 005°12'611.6
2017-Dec-09 06:30N 53°39' E 005°21'711.9
2017-Dec-09 05:57N 53°41' E 005°31'71 9.5
2017-Dec-08 22:30N 53°60' E 007°27'4 7.3
2017-Dec-08 22:00N 54°01' E 007°33'4 8.3
2017-Dec-08 21:30N 54°02' E 007°40'5 9.2
2017-Dec-08 21:00N 54°02' E 007°48'5 9.9
2017-Dec-08 20:30N 54°00' E 007°56'610.4
2017-Dec-08 19:57N 54°01' E 008°05'410.0
2017-Dec-08 19:30N 54°01' E 008°13'611.4
2017-Dec-08 19:00N 53°59' E 008°23'917.5
2017-Dec-08 18:31N 53°57' E 008°37'815.9
2017-Dec-08 18:01N 53°51' E 008°45'815.1
2017-Dec-08 17:30N 53°51' E 008°58'713.9
2017-Dec-08 17:00N 53°53' E 009°10'5 9.2
2017-Dec-08 16:31N 53°52' E 009°17'612.4
2017-Dec-08 16:01N 53°47' E 009°23'713.0
2017-Dec-08 15:31N 53°42' E 009°30'5 9.0
2017-Dec-08 15:01N 53°37' E 009°33'510.3
2017-Dec-08 14:31N 53°34' E 009°39'5 9.8
2017-Dec-08 14:01N 53°33' E 009°48'4 8.2
2017-Dec-08 13:31N 53°32' E 009°54'0 0.5
2017-Dec-08 12:59N 53°32' E 009°54'0 0.0
2017-Dec-08 12:29N 53°32' E 009°54'0 0.1
2017-Dec-08 11:59N 53°32' E 009°54'0 0.0
2017-Dec-08 11:29N 53°32' E 009°54'0 0.0
2017-Dec-08 10:59N 53°32' E 009°54'0 0.0
2017-Dec-08 10:29N 53°32' E 009°54'0 0.0
2017-Dec-08 09:56N 53°32' E 009°54'0 0.0
2017-Dec-08 09:29N 53°32' E 009°54'0 0.0
2017-Dec-08 08:59N 53°32' E 009°54'0 0.0
2017-Dec-08 08:29N 53°32' E 009°54'0 0.0
2017-Dec-08 07:59N 53°32' E 009°54'0 0.0
2017-Dec-08 07:29N 53°32' E 009°54'0 0.0
2017-Dec-08 06:59N 53°32' E 009°54'0 0.0
2017-Dec-08 06:29N 53°32' E 009°54'0 0.0
2017-Dec-08 05:59N 53°32' E 009°54'0 0.0
2017-Dec-08 05:29N 53°32' E 009°54'0 0.0
2017-Dec-08 04:59N 53°32' E 009°54'0 0.0
2017-Dec-08 04:29N 53°32' E 009°54'0 0.0
2017-Dec-08 03:56N 53°32' E 009°54'0 0.0
2017-Dec-08 03:29N 53°32' E 009°54'0 0.0
2017-Dec-08 02:59N 53°32' E 009°54'0 0.0
2017-Dec-08 02:29N 53°32' E 009°54'0 0.0
2017-Dec-08 01:59N 53°32' E 009°54'0 0.0
2017-Dec-08 01:29N 53°32' E 009°54'0 0.0
2017-Dec-08 00:59N 53°32' E 009°54'0 0.1
2017-Dec-08 00:29N 53°32' E 009°54'0 0.1
2017-Dec-07 23:59N 53°32' E 009°54'0 0.0
2017-Dec-07 23:29N 53°32' E 009°54'0 0.0
2017-Dec-07 22:59N 53°32' E 009°54'0 0.0
2017-Dec-07 22:29N 53°32' E 009°54'0 0.0
2017-Dec-07 21:59N 53°32' E 009°54'0 0.1
2017-Dec-07 21:29N 53°32' E 009°54'0 0.1
2017-Dec-07 20:59N 53°32' E 009°54'0 0.0
2017-Dec-07 20:29N 53°32' E 009°54'0 0.0
2017-Dec-07 19:59N 53°32' E 009°54'0 0.0
2017-Dec-07 19:29N 53°32' E 009°54'0 0.0
2017-Dec-07 18:59N 53°32' E 009°54'0 0.0
2017-Dec-07 18:26N 53°32' E 009°54'0 0.0
2017-Dec-07 17:59N 53°32' E 009°54'0 0.0
2017-Dec-07 17:29N 53°32' E 009°54'0 0.0
2017-Dec-07 16:59N 53°32' E 009°54'0 0.0
2017-Dec-07 16:29N 53°32' E 009°54'0 0.0
2017-Dec-07 15:59N 53°32' E 009°54'0 0.0
2017-Dec-07 15:26N 53°32' E 009°54'0 0.0
2017-Dec-07 14:59N 53°32' E 009°54'0 0.0
2017-Dec-07 14:29N 53°32' E 009°54'0 0.0
2017-Dec-07 13:59N 53°32' E 009°54'0 0.5
2017-Dec-07 13:31N 53°32' E 009°54'4 8.2
2017-Dec-07 13:00N 53°33' E 009°47'510.9
2017-Dec-07 12:31N 53°34' E 009°38'611.4
2017-Dec-07 12:01N 53°38' E 009°31'5 9.7
2017-Dec-07 11:30N 53°43' E 009°28'510.8
2017-Dec-07 11:01N 53°47' E 009°23'713.2
2017-Dec-07 10:30N 53°52' E 009°16'5 9.7
2017-Dec-07 10:01N 53°53' E 009°08'510.6
2017-Dec-07 09:30N 53°51' E 008°59'713.2
2017-Dec-07 09:00N 53°50' E 008°48'5 9.7
2017-Dec-07 08:30N 53°54' E 008°42'611.7
2017-Dec-07 08:00N 53°58' E 008°35'713.9
2017-Dec-07 07:30N 53°59' E 008°23'713.3
2017-Dec-07 07:00N 53°60' E 008°12'713.6
2017-Dec-07 06:30N 53°58' E 008°01'8814.7
2017-Dec-07 00:31N 53°35' E 005°37'014.6
2017-Dec-07 00:30N 53°35' E 005°36'714.7
2017-Dec-07 00:01N 53°33' E 005°25'815.0
2017-Dec-06 23:30N 53°31' E 005°12'815.1
2017-Dec-06 23:00N 53°28' E 005°00'815.1
2017-Dec-06 22:30N 53°26' E 004°48'714.3
2017-Dec-06 22:01N 53°21' E 004°40'714.9
2017-Dec-06 21:30N 53°15' E 004°34'815.0
2017-Dec-06 21:00N 53°08' E 004°28'  

Dump ship's entire track history